Time;durP1;ratioP1;P1;durP2;ratioP2;P2;SDS_P1;SDS_P2;PMS_P1;PMS_P2;Temp;Humidity;BMP_temperature;BMP_pressure;BME280_temperature;BME280_humidity;BME280_pressure;Samples;Min_cycle;Max_cycle;Signal;HPM_P1;HPM_P2
2022/03/06 00:01:06;;;;;;;5.10;2.90;;;1.00;99.90;;;;;;5053795;28;20494;-69
2022/03/06 00:03:32;;;;;;;2.97;2.87;;;1.00;99.90;;;;;;5053984;28;20209;-69
2022/03/06 00:05:58;;;;;;;3.17;2.90;;;1.10;99.90;;;;;;5052270;28;20536;-68
2022/03/06 00:08:23;;;;;;;3.23;2.90;;;1.00;99.90;;;;;;5053008;28;20263;-62
2022/03/06 00:10:50;;;;;;;3.00;2.90;;;1.10;99.90;;;;;;5037406;28;20675;-63
2022/03/06 00:13:16;;;;;;;5.70;2.83;;;1.20;99.90;;;;;;5035095;28;20543;-64
2022/03/06 00:15:42;;;;;;;3.63;3.43;;;1.30;99.90;;;;;;5054827;28;20425;-68
2022/03/06 00:18:08;;;;;;;2.53;2.43;;;1.40;99.90;;;;;;5047986;28;20791;-65
2022/03/06 00:20:33;;;;;;;2.80;2.60;;;1.40;99.90;;;;;;5034834;28;20179;-63
2022/03/06 00:22:59;;;;;;;3.50;3.30;;;1.40;99.90;;;;;;5035911;28;20460;-62
2022/03/06 00:25:25;;;;;;;3.03;2.87;;;1.40;99.90;;;;;;5035615;28;20180;-67
2022/03/06 00:27:50;;;;;;;8.33;3.67;;;1.30;99.90;;;;;;5039331;28;20261;-70
2022/03/06 00:30:16;;;;;;;3.80;3.50;;;1.30;99.90;;;;;;5042505;28;20197;-62
2022/03/06 00:32:42;;;;;;;2.77;2.57;;;1.20;99.90;;;;;;5050107;28;20532;-63
2022/03/06 00:35:08;;;;;;;4.20;3.30;;;1.10;99.90;;;;;;5052382;28;20507;-62
2022/03/06 00:37:34;;;;;;;4.07;3.87;;;1.00;99.90;;;;;;5036265;28;20175;-62
2022/03/06 00:40:00;;;;;;;3.50;3.30;;;1.00;99.90;;;;;;5034769;28;20472;-63
2022/03/06 00:42:26;;;;;;;3.60;3.30;;;1.00;99.90;;;;;;5050482;28;20202;-69
2022/03/06 00:44:52;;;;;;;4.00;3.70;;;1.00;99.90;;;;;;5052459;28;20418;-62
2022/03/06 00:47:18;;;;;;;3.10;3.00;;;1.00;99.90;;;;;;5053095;28;20175;-69
2022/03/06 00:49:43;;;;;;;3.40;3.20;;;1.00;99.90;;;;;;5048942;28;20265;-63
2022/03/06 00:52:09;;;;;;;2.80;2.70;;;1.00;99.90;;;;;;5032897;28;20195;-69
2022/03/06 00:54:35;;;;;;;3.73;3.30;;;1.10;99.90;;;;;;5039519;28;20175;-68
2022/03/06 00:57:00;;;;;;;3.00;2.70;;;1.10;99.90;;;;;;5054100;28;20159;-69
2022/03/06 00:59:32;;;;;;;3.17;2.97;;;1.00;99.90;;;;;;5036036;28;20721;-68
2022/03/06 01:01:59;;;;;;;3.20;3.00;;;1.00;99.90;;;;;;5036446;28;22076;-69
2022/03/06 01:04:25;;;;;;;3.13;2.93;;;1.10;99.90;;;;;;5035011;28;20171;-62
2022/03/06 01:06:51;;;;;;;4.63;3.13;;;1.10;99.90;;;;;;5035379;28;20879;-68
2022/03/06 01:09:16;;;;;;;3.03;2.93;;;1.20;99.90;;;;;;5050214;28;20179;-63
2022/03/06 01:11:42;;;;;;;2.60;2.50;;;1.20;99.90;;;;;;5053462;28;20199;-69
2022/03/06 01:14:08;;;;;;;2.80;2.60;;;1.20;99.90;;;;;;5036031;28;20172;-63
2022/03/06 01:16:33;;;;;;;2.60;2.40;;;1.20;99.90;;;;;;5035001;28;20302;-69
2022/03/06 01:18:59;;;;;;;2.40;2.30;;;1.10;99.90;;;;;;5051178;28;20513;-69
2022/03/06 01:21:25;;;;;;;2.47;2.37;;;1.10;99.90;;;;;;5054485;28;20659;-65
2022/03/06 01:23:50;;;;;;;2.30;2.20;;;1.20;99.90;;;;;;5038813;28;20202;-62
2022/03/06 01:26:19;;;;;;;2.13;1.90;;;1.20;99.90;;;;;;5033964;28;20247;-69
2022/03/06 01:28:45;;;;;;;7.93;3.10;;;1.20;99.90;;;;;;5036217;28;20278;-63
2022/03/06 01:31:11;;;;;;;2.00;1.90;;;1.30;99.90;;;;;;5034303;28;20951;-69
2022/03/06 01:33:37;;;;;;;3.50;2.70;;;1.30;99.90;;;;;;5043566;28;20421;-63
2022/03/06 01:36:04;;;;;;;2.40;2.30;;;1.40;99.90;;;;;;5037444;28;20765;-67
2022/03/06 01:38:29;;;;;;;2.70;2.60;;;1.40;99.90;;;;;;5037800;28;20167;-69
2022/03/06 01:40:55;;;;;;;2.63;2.53;;;1.50;99.90;;;;;;5034000;28;20922;-69
2022/03/06 01:43:21;;;;;;;3.20;2.20;;;1.50;99.90;;;;;;5034598;28;20195;-68
2022/03/06 01:45:47;;;;;;;7.33;2.17;;;1.40;99.90;;;;;;5049628;28;20666;-69
2022/03/06 01:48:12;;;;;;;1.70;1.60;;;1.30;99.90;;;;;;5039277;28;20251;-66
2022/03/06 01:50:38;;;;;;;2.23;2.13;;;1.40;99.90;;;;;;5053275;28;20266;-69
2022/03/06 01:53:06;;;;;;;2.20;2.10;;;1.50;99.90;;;;;;5048818;28;20259;-62
2022/03/06 01:55:33;;;;;;;2.63;2.53;;;1.50;99.90;;;;;;5039333;28;20413;-68
2022/03/06 01:58:06;;;;;;;3.03;2.67;;;1.60;99.90;;;;;;5048721;28;20512;-68
2022/03/06 02:00:38;;;;;;;2.67;2.47;;;1.60;99.90;;;;;;5032912;28;20441;-69
2022/03/06 02:03:04;;;;;;;3.13;2.10;;;1.50;99.90;;;;;;5036387;28;20571;-68
2022/03/06 02:05:29;;;;;;;2.70;2.50;;;1.40;99.90;;;;;;5053488;28;20390;-62
2022/03/06 02:07:55;;;;;;;2.57;2.40;;;1.40;99.90;;;;;;5044155;28;20903;-62
2022/03/06 02:10:21;;;;;;;2.40;2.30;;;1.40;99.90;;;;;;5033679;28;20561;-68
2022/03/06 02:12:46;;;;;;;2.20;2.10;;;1.40;99.90;;;;;;5034877;28;20196;-68
2022/03/06 02:15:15;;;;;;;2.73;2.53;;;1.50;99.90;;;;;;5033756;28;20184;-62
2022/03/06 02:17:41;;;;;;;2.43;2.33;;;1.50;99.90;;;;;;5035616;28;20164;-62
2022/03/06 02:20:22;;;;;;;9.83;3.07;;;1.40;99.90;;;;;;5050165;28;20413;-68
2022/03/06 02:22:51;;;;;;;2.33;2.23;;;1.30;99.90;;;;;;5048561;28;21377;-64
2022/03/06 02:25:26;;;;;;;2.10;2.00;;;1.40;99.90;;;;;;5033643;28;20468;-67
2022/03/06 02:27:53;;;;;;;2.40;2.20;;;1.40;99.90;;;;;;5044724;28;20414;-62
2022/03/06 02:30:21;;;;;;;2.30;2.20;;;1.40;99.90;;;;;;5031361;28;20417;-70
2022/03/06 02:32:49;;;;;;;2.33;2.13;;;1.40;99.90;;;;;;5036429;28;20442;-64
2022/03/06 02:35:15;;;;;;;2.43;2.23;;;1.40;99.90;;;;;;5046056;28;20425;-62
2022/03/06 02:37:41;;;;;;;2.27;2.03;;;1.50;99.90;;;;;;5048366;28;20962;-62
2022/03/06 02:40:09;;;;;;;2.03;1.93;;;1.60;99.90;;;;;;5032827;28;20480;-68
2022/03/06 02:42:41;;;;;;;2.20;2.10;;;1.70;99.90;;;;;;5044754;28;20458;-68
2022/03/06 02:45:12;;;;;;;2.03;1.93;;;1.80;99.90;;;;;;5042257;28;20447;-65
2022/03/06 02:47:38;;;;;;;2.67;2.57;;;1.70;99.90;;;;;;5033160;28;20402;-62
2022/03/06 02:50:06;;;;;;;2.33;2.23;;;1.80;99.90;;;;;;5032067;28;20488;-63
2022/03/06 02:52:32;;;;;;;2.37;2.27;;;1.80;99.90;;;;;;5034023;28;20768;-66
2022/03/06 02:54:57;;;;;;;2.63;2.53;;;1.90;99.90;;;;;;5032937;28;20476;-69
2022/03/06 02:57:23;;;;;;;3.40;2.20;;;2.00;99.90;;;;;;5051387;28;20636;-67
2022/03/06 02:59:49;;;;;;;2.10;2.00;;;2.00;99.90;;;;;;5050428;28;20185;-70
2022/03/06 03:02:15;;;;;;;2.53;2.33;;;1.80;99.90;;;;;;5034853;28;20199;-63
2022/03/06 03:04:40;;;;;;;1.90;1.80;;;1.80;99.90;;;;;;5036071;28;20640;-62
2022/03/06 03:07:10;;;;;;;2.67;2.47;;;1.80;99.90;;;;;;5049417;28;20210;-62
2022/03/06 03:09:36;;;;;;;2.23;2.13;;;1.90;99.90;;;;;;5031882;28;20418;-63
2022/03/06 03:12:02;;;;;;;2.00;1.90;;;1.90;99.90;;;;;;5047106;28;20463;-69
2022/03/06 03:14:31;;;;;;;2.63;2.23;;;2.00;99.90;;;;;;5045228;28;20548;-69
2022/03/06 03:16:58;;;;;;;2.10;2.00;;;2.00;99.90;;;;;;5044713;28;20445;-63
2022/03/06 03:19:24;;;;;;;2.37;2.17;;;2.00;99.90;;;;;;5051846;28;20389;-64
2022/03/06 03:21:50;;;;;;;2.00;1.90;;;2.00;99.90;;;;;;5041857;28;20444;-65
2022/03/06 03:24:15;;;;;;;2.07;1.97;;;2.00;99.90;;;;;;5032430;28;20930;-62
2022/03/06 03:26:41;;;;;;;2.70;1.50;;;2.00;99.90;;;;;;5045887;28;20182;-63
2022/03/06 03:29:07;;;;;;;4.40;3.23;;;2.00;99.90;;;;;;5051679;28;20581;-62
2022/03/06 03:31:32;;;;;;;2.10;2.00;;;2.00;99.90;;;;;;5046831;28;20205;-67
2022/03/06 03:33:58;;;;;;;1.90;1.80;;;2.00;99.90;;;;;;5050306;28;20174;-62
2022/03/06 03:36:24;;;;;;;2.20;2.00;;;2.00;99.90;;;;;;5041855;28;20178;-69
2022/03/06 03:38:49;;;;;;;1.80;1.70;;;2.10;99.90;;;;;;5031630;28;21006;-63
2022/03/06 03:41:15;;;;;;;2.10;2.00;;;2.10;99.90;;;;;;5044078;28;20194;-69
2022/03/06 03:43:41;;;;;;;2.10;2.00;;;2.10;99.90;;;;;;5052405;28;20741;-69
2022/03/06 03:46:06;;;;;;;9.00;2.60;;;2.10;99.90;;;;;;5041910;28;20171;-68
2022/03/06 03:48:33;;;;;;;3.73;2.50;;;2.10;99.90;;;;;;5051823;28;20636;-62
2022/03/06 03:50:59;;;;;;;2.50;2.40;;;2.10;99.90;;;;;;5042630;28;20195;-68
2022/03/06 03:53:25;;;;;;;2.70;2.60;;;2.10;99.90;;;;;;5032194;28;20918;-64
2022/03/06 03:55:52;;;;;;;2.90;2.70;;;2.10;99.90;;;;;;5032709;28;20179;-68
2022/03/06 03:58:18;;;;;;;2.83;2.03;;;2.00;99.90;;;;;;5032465;28;20420;-62
2022/03/06 04:00:45;;;;;;;2.60;2.03;;;2.00;99.90;;;;;;5035729;28;20420;-63
2022/03/06 04:03:11;;;;;;;2.20;2.10;;;2.00;99.90;;;;;;5051637;28;20494;-68
2022/03/06 04:05:37;;;;;;;4.20;2.57;;;2.00;99.90;;;;;;5048672;28;20414;-68
2022/03/06 04:08:03;;;;;;;2.43;2.33;;;2.00;99.90;;;;;;5044325;28;20937;-68
2022/03/06 04:10:28;;;;;;;2.80;2.00;;;2.00;99.90;;;;;;5053290;28;20409;-68
2022/03/06 04:12:54;;;;;;;2.00;1.90;;;2.00;99.90;;;;;;5034461;28;20552;-65
2022/03/06 04:15:19;;;;;;;1.90;1.80;;;2.00;99.90;;;;;;5035470;28;20164;-68
2022/03/06 04:17:45;;;;;;;6.53;2.57;;;2.00;99.90;;;;;;5054159;28;20175;-68
2022/03/06 04:20:11;;;;;;;2.30;2.20;;;2.00;99.90;;;;;;5035032;28;20230;-62
2022/03/06 04:22:36;;;;;;;2.50;2.40;;;1.90;99.90;;;;;;5053218;28;20710;-63
2022/03/06 04:25:06;;;;;;;2.60;2.00;;;1.90;99.90;;;;;;5038847;28;20176;-69
2022/03/06 04:27:31;;;;;;;3.83;2.30;;;1.90;99.90;;;;;;5051832;28;20171;-64
2022/03/06 04:29:57;;;;;;;2.33;1.97;;;1.90;99.90;;;;;;5047733;28;20468;-69
2022/03/06 04:32:23;;;;;;;2.77;2.57;;;1.90;99.90;;;;;;5049235;28;20198;-69
2022/03/06 04:34:49;;;;;;;3.37;2.13;;;2.00;99.90;;;;;;5055643;28;20159;-64
2022/03/06 04:37:15;;;;;;;2.83;2.50;;;2.00;99.90;;;;;;5037924;28;20426;-63
2022/03/06 04:39:41;;;;;;;3.07;1.80;;;2.00;99.90;;;;;;5037994;28;20413;-62
2022/03/06 04:42:06;;;;;;;2.40;2.20;;;1.90;99.90;;;;;;5042695;28;20489;-63
2022/03/06 04:44:32;;;;;;;3.00;2.80;;;1.80;99.90;;;;;;5038903;28;20182;-62
2022/03/06 04:46:58;;;;;;;3.30;2.50;;;1.90;99.90;;;;;;5054752;28;20205;-69
2022/03/06 04:49:24;;;;;;;5.70;2.50;;;1.80;99.90;;;;;;5052563;28;20163;-65
2022/03/06 04:51:49;;;;;;;2.50;2.30;;;1.80;99.90;;;;;;5037915;28;20213;-62
2022/03/06 04:54:15;;;;;;;1.53;1.43;;;1.80;99.90;;;;;;5053801;28;20175;-68
2022/03/06 04:56:41;;;;;;;1.80;1.70;;;1.80;99.90;;;;;;5035472;28;20651;-66
2022/03/06 04:59:06;;;;;;;2.17;2.07;;;1.80;99.90;;;;;;5034367;28;20265;-69
2022/03/06 05:01:32;;;;;;;2.30;2.10;;;1.80;99.90;;;;;;5047007;28;20271;-69
2022/03/06 05:04:00;;;;;;;2.60;2.40;;;1.80;99.90;;;;;;5037144;28;20213;-69
2022/03/06 05:06:26;;;;;;;2.20;2.00;;;1.80;99.90;;;;;;5055044;28;20174;-69
2022/03/06 05:08:52;;;;;;;2.90;2.60;;;1.90;99.90;;;;;;5037124;28;20415;-67
2022/03/06 05:11:18;;;;;;;4.17;2.00;;;1.90;99.90;;;;;;5034487;28;20442;-62
2022/03/06 05:13:43;;;;;;;2.43;2.23;;;1.70;99.90;;;;;;5048288;28;20178;-62
2022/03/06 05:16:09;;;;;;;2.60;2.27;;;1.60;99.90;;;;;;5050778;28;20179;-62
2022/03/06 05:18:35;;;;;;;2.40;2.20;;;1.60;99.90;;;;;;5045762;28;20185;-68
2022/03/06 05:21:02;;;;;;;5.00;2.63;;;1.70;99.90;;;;;;5054048;28;20468;-62
2022/03/06 05:23:28;;;;;;;2.67;2.47;;;1.70;99.90;;;;;;5042953;28;20191;-63
2022/03/06 05:25:54;;;;;;;2.07;1.97;;;1.80;99.90;;;;;;5034487;28;20868;-67
2022/03/06 05:28:20;;;;;;;2.20;2.00;;;1.80;99.90;;;;;;5034556;28;20253;-62
2022/03/06 05:30:47;;;;;;;2.60;2.40;;;1.90;99.90;;;;;;5032426;28;21020;-63
2022/03/06 05:33:12;;;;;;;3.10;2.77;;;1.90;99.90;;;;;;5041639;28;20462;-69
2022/03/06 05:35:38;;;;;;;3.80;3.50;;;2.00;99.90;;;;;;5053133;28;20783;-69
2022/03/06 05:38:04;;;;;;;3.10;2.90;;;2.00;99.90;;;;;;5046909;28;20179;-67
2022/03/06 05:40:30;;;;;;;3.83;2.60;;;2.00;99.90;;;;;;5033630;28;20177;-69
2022/03/06 05:42:56;;;;;;;3.57;3.37;;;2.10;99.90;;;;;;5044546;28;20245;-63
2022/03/06 05:45:21;;;;;;;2.20;2.10;;;2.10;99.90;;;;;;5033942;28;20411;-67
2022/03/06 05:47:47;;;;;;;3.33;3.10;;;2.10;99.90;;;;;;5039245;28;20171;-65
2022/03/06 05:50:12;;;;;;;2.80;2.60;;;2.10;99.90;;;;;;5053155;28;20187;-65
2022/03/06 05:52:39;;;;;;;2.87;2.70;;;2.10;99.90;;;;;;5049685;28;20591;-69
2022/03/06 05:55:06;;;;;;;3.13;2.83;;;2.10;99.90;;;;;;5053970;28;20163;-69
2022/03/06 05:57:32;;;;;;;2.80;2.70;;;2.10;99.90;;;;;;5051251;28;20433;-63
2022/03/06 05:59:57;;;;;;;6.23;3.10;;;2.10;99.90;;;;;;5033145;28;20422;-67
2022/03/06 06:02:23;;;;;;;3.53;2.93;;;2.20;99.90;;;;;;5035152;28;20453;-67
2022/03/06 06:04:49;;;;;;;3.83;2.30;;;2.10;99.90;;;;;;5036898;28;20524;-66
2022/03/06 06:07:15;;;;;;;4.47;2.70;;;2.10;99.90;;;;;;5036647;28;20417;-69
2022/03/06 06:09:40;;;;;;;4.40;3.20;;;2.00;99.90;;;;;;5052315;28;20201;-62
2022/03/06 06:12:07;;;;;;;3.23;3.03;;;1.90;99.90;;;;;;5051826;28;20198;-69
2022/03/06 06:14:33;;;;;;;3.73;3.43;;;1.80;99.90;;;;;;5032868;28;20252;-65
2022/03/06 06:16:58;;;;;;;2.83;2.63;;;1.70;99.90;;;;;;5048823;28;20448;-68
2022/03/06 06:19:24;;;;;;;4.53;2.87;;;1.60;99.90;;;;;;5032940;28;20203;-62
2022/03/06 06:21:50;;;;;;;3.10;2.90;;;1.50;99.90;;;;;;5032997;28;20184;-62
2022/03/06 06:24:16;;;;;;;3.50;3.10;;;1.40;99.90;;;;;;5051028;28;20253;-67
2022/03/06 06:26:43;;;;;;;3.17;2.97;;;1.40;99.90;;;;;;5051759;28;20167;-69
2022/03/06 06:29:08;;;;;;;2.78;2.58;;;1.30;99.90;;;;;;5033740;28;20425;-68
2022/03/06 06:31:34;;;;;;;3.40;3.20;;;1.30;99.90;;;;;;5032949;28;20195;-62
2022/03/06 06:34:00;;;;;;;2.80;2.70;;;1.30;99.90;;;;;;5047433;28;20421;-67
2022/03/06 06:36:26;;;;;;;4.67;3.83;;;1.20;99.90;;;;;;5053156;28;20406;-70
2022/03/06 06:38:52;;;;;;;3.70;3.50;;;1.20;99.90;;;;;;5048924;28;20640;-69
2022/03/06 06:41:18;;;;;;;3.57;3.37;;;1.10;99.90;;;;;;5052633;28;20528;-66
2022/03/06 06:43:43;;;;;;;3.30;3.00;;;1.10;99.90;;;;;;5039967;28;20461;-66
2022/03/06 06:46:10;;;;;;;3.67;3.33;;;1.10;99.90;;;;;;5046168;28;20175;-73
2022/03/06 06:48:35;;;;;;;3.38;3.17;;;1.00;99.90;;;;;;5040363;28;20427;-65
2022/03/06 06:51:01;;;;;;;3.20;3.00;;;1.00;99.90;;;;;;5039191;28;20198;-65
2022/03/06 06:53:27;;;;;;;3.50;3.30;;;0.90;99.90;;;;;;5043261;28;20194;-68
2022/03/06 06:55:52;;;;;;;3.17;2.90;;;0.90;99.90;;;;;;5036427;28;20175;-71
2022/03/06 06:58:18;;;;;;;3.37;3.07;;;0.90;99.90;;;;;;5042812;28;20209;-65
2022/03/06 07:00:44;;;;;;;3.70;3.50;;;1.00;99.90;;;;;;5047799;28;20186;-67
2022/03/06 07:03:09;;;;;;;2.80;2.60;;;1.00;99.90;;;;;;5035904;28;20253;-70
2022/03/06 07:05:35;;;;;;;3.20;2.93;;;1.00;99.90;;;;;;5034205;28;20552;-67
2022/03/06 07:08:01;;;;;;;5.10;3.47;;;1.10;99.90;;;;;;5033144;28;20247;-65
2022/03/06 07:10:27;;;;;;;3.17;2.97;;;1.20;99.90;;;;;;5033402;28;20409;-68
2022/03/06 07:12:55;;;;;;;3.13;2.83;;;1.20;99.90;;;;;;5052700;28;20186;-71
2022/03/06 07:15:27;;;;;;;3.67;3.40;;;1.20;99.90;;;;;;5050725;28;20508;-71
2022/03/06 07:17:56;;;;;;;11.90;6.50;;;1.30;99.90;;;;;;5051126;28;20420;-66
2022/03/06 07:20:21;;;;;;;5.87;4.90;;;1.40;99.90;;;;;;5032088;28;20433;-72
2022/03/06 07:22:47;;;;;;;5.10;4.20;;;1.50;99.90;;;;;;5032616;28;20466;-72
2022/03/06 07:25:13;;;;;;;4.37;4.10;;;1.60;99.90;;;;;;5046789;28;20190;-70
2022/03/06 07:27:38;;;;;;;5.10;3.80;;;1.60;99.90;;;;;;5052744;28;20170;-64
2022/03/06 07:30:04;;;;;;;3.50;2.90;;;1.70;99.90;;;;;;5037989;28;20175;-72
2022/03/06 07:32:30;;;;;;;2.77;2.67;;;1.80;99.90;;;;;;5032152;28;20279;-71
2022/03/06 07:34:55;;;;;;;3.40;3.10;;;1.80;99.90;;;;;;5041323;28;20421;-65
2022/03/06 07:37:21;;;;;;;4.93;4.13;;;1.80;99.90;;;;;;5051105;28;20205;-70
2022/03/06 07:39:47;;;;;;;4.07;3.13;;;1.80;99.90;;;;;;5051009;28;20187;-70
2022/03/06 07:42:13;;;;;;;3.60;3.37;;;1.80;99.90;;;;;;5052591;28;20425;-72
2022/03/06 07:44:38;;;;;;;4.33;3.57;;;1.80;99.90;;;;;;5048021;28;20516;-68
2022/03/06 07:47:04;;;;;;;4.00;3.70;;;1.80;99.90;;;;;;5036529;28;20211;-65
2022/03/06 07:49:30;;;;;;;3.90;3.70;;;1.80;99.90;;;;;;5040928;28;20178;-65
2022/03/06 07:51:55;;;;;;;4.40;3.27;;;1.90;99.90;;;;;;5054212;28;20452;-74
2022/03/06 07:54:21;;;;;;;3.33;3.03;;;1.90;99.90;;;;;;5054120;28;20179;-65
2022/03/06 07:56:48;;;;;;;4.87;3.30;;;1.90;99.90;;;;;;5036429;28;20163;-73
2022/03/06 07:59:14;;;;;;;3.63;3.40;;;2.00;99.90;;;;;;5037653;28;20584;-73
2022/03/06 08:01:40;;;;;;;3.93;3.67;;;2.10;99.90;;;;;;5056094;28;20448;-73
2022/03/06 08:04:05;;;;;;;3.63;3.40;;;2.20;99.90;;;;;;5053341;28;20244;-66
2022/03/06 08:06:31;;;;;;;3.73;3.37;;;2.40;99.90;;;;;;5056378;28;20217;-74
2022/03/06 08:08:57;;;;;;;3.97;3.77;;;2.50;99.90;;;;;;5045054;28;20179;-66
2022/03/06 08:11:23;;;;;;;3.80;3.53;;;2.50;99.90;;;;;;5035322;28;20192;-71
2022/03/06 08:13:48;;;;;;;4.10;3.50;;;2.60;99.90;;;;;;5036104;28;20501;-73
2022/03/06 08:16:14;;;;;;;4.27;3.10;;;2.70;99.90;;;;;;5036033;28;20175;-73
2022/03/06 08:18:40;;;;;;;5.20;3.43;;;2.80;99.90;;;;;;5035117;28;20175;-66
2022/03/06 08:21:05;;;;;;;4.03;3.60;;;2.70;99.90;;;;;;5035771;28;20540;-74
2022/03/06 08:23:31;;;;;;;4.63;3.60;;;2.80;99.90;;;;;;5035853;28;20274;-74
2022/03/06 08:25:56;;;;;;;4.77;4.30;;;2.90;99.90;;;;;;5046724;28;20571;-74
2022/03/06 08:28:22;;;;;;;3.37;3.17;;;3.00;99.90;;;;;;5055085;28;20167;-74
2022/03/06 08:30:48;;;;;;;3.50;2.77;;;3.10;99.90;;;;;;5054869;28;20166;-66
2022/03/06 08:33:13;;;;;;;4.20;3.80;;;3.30;99.90;;;;;;5055717;28;20205;-73
2022/03/06 08:35:39;;;;;;;3.80;3.50;;;3.40;99.90;;;;;;5055481;28;20182;-67
2022/03/06 08:38:04;;;;;;;3.93;3.60;;;3.40;99.90;;;;;;5055665;28;20636;-70
2022/03/06 08:40:31;;;;;;;4.70;3.10;;;3.20;99.90;;;;;;5054776;28;20210;-74
2022/03/06 08:42:57;;;;;;;3.70;3.43;;;3.10;99.90;;;;;;5053346;28;20202;-74
2022/03/06 08:45:23;;;;;;;6.27;3.30;;;2.90;99.90;;;;;;5055360;28;20394;-69
2022/03/06 08:47:49;;;;;;;3.50;3.20;;;3.00;99.90;;;;;;5054813;28;20481;-66
2022/03/06 08:50:15;;;;;;;4.23;2.90;;;3.00;99.90;;;;;;5054447;28;20976;-65
2022/03/06 08:52:40;;;;;;;3.43;3.13;;;3.00;99.90;;;;;;5055371;28;20581;-65
2022/03/06 08:55:09;;;;;;;3.03;2.83;;;2.90;99.90;;;;;;5054399;28;20237;-66
2022/03/06 08:57:35;;;;;;;4.63;4.00;;;3.00;99.90;;;;;;5038888;28;20965;-74
2022/03/06 09:00:00;;;;;;;3.67;3.37;;;3.20;99.90;;;;;;5034545;28;20440;-72
2022/03/06 09:02:26;;;;;;;4.07;3.47;;;3.40;99.90;;;;;;5035060;28;20456;-66
2022/03/06 09:04:52;;;;;;;4.07;3.40;;;3.70;99.90;;;;;;5034599;28;20172;-66
2022/03/06 09:07:17;;;;;;;3.00;2.80;;;3.90;99.90;;;;;;5035235;28;20175;-64
2022/03/06 09:09:43;;;;;;;3.50;3.20;;;4.10;99.90;;;;;;5034161;28;20618;-70
2022/03/06 09:12:09;;;;;;;3.40;3.20;;;4.20;99.90;;;;;;5054357;28;20190;-72
2022/03/06 09:14:34;;;;;;;3.93;3.63;;;4.40;99.90;;;;;;5055028;28;20166;-74
2022/03/06 09:17:00;;;;;;;4.03;3.73;;;4.50;99.90;;;;;;5054941;28;20220;-66
2022/03/06 09:19:25;;;;;;;7.10;4.63;;;4.70;99.90;;;;;;5053657;28;20634;-68
2022/03/06 09:21:51;;;;;;;3.67;3.10;;;4.80;99.90;;;;;;5054171;28;20198;-67
2022/03/06 09:24:17;;;;;;;4.00;3.57;;;4.90;99.90;;;;;;5051191;28;20210;-66
2022/03/06 09:26:43;;;;;;;3.83;3.40;;;4.80;99.90;;;;;;5038671;28;20179;-66
2022/03/06 09:29:09;;;;;;;3.10;2.90;;;4.80;99.90;;;;;;5053711;28;20162;-67
2022/03/06 09:31:35;;;;;;;3.70;3.50;;;5.10;99.90;;;;;;5053216;28;20481;-74
2022/03/06 09:34:00;;;;;;;3.70;3.50;;;5.50;99.90;;;;;;5054554;28;20845;-70
2022/03/06 09:36:26;;;;;;;3.20;3.00;;;5.70;99.90;;;;;;5054528;28;20174;-73
2022/03/06 09:38:52;;;;;;;2.73;2.60;;;5.60;99.90;;;;;;5053033;28;20251;-75
2022/03/06 09:41:24;;;;;;;3.63;3.10;;;5.40;99.90;;;;;;5047279;28;20689;-74
2022/03/06 09:43:53;;;;;;;4.70;2.67;;;5.60;99.90;;;;;;5034335;28;20660;-75
2022/03/06 09:46:20;;;;;;;4.47;3.47;;;6.10;99.90;;;;;;5034414;28;20399;-75
2022/03/06 09:48:47;;;;;;;3.70;3.23;;;6.50;99.90;;;;;;5033528;28;20528;-74
2022/03/06 09:51:13;;;;;;;5.63;3.40;;;6.90;99.90;;;;;;5034348;28;20457;-66
2022/03/06 09:53:39;;;;;;;3.73;3.43;;;7.40;99.90;;;;;;5034247;28;20415;-75
2022/03/06 09:56:05;;;;;;;2.90;2.47;;;7.80;99.90;;;;;;5049261;28;20504;-66
2022/03/06 09:58:31;;;;;;;10.07;3.73;;;8.10;99.90;;;;;;5051264;28;20184;-73
2022/03/06 10:00:57;;;;;;;5.20;3.53;;;8.30;99.90;;;;;;5053964;28;20197;-75
2022/03/06 10:03:25;;;;;;;3.50;3.20;;;8.60;99.90;;;;;;5053966;28;20195;-75
2022/03/06 10:05:51;;;;;;;3.57;3.27;;;8.50;99.90;;;;;;5053984;28;20933;-67
2022/03/06 10:08:27;;;;;;;3.03;2.83;;;7.90;99.90;;;;;;5052367;28;20433;-76
2022/03/06 10:11:04;;;;;;;3.40;3.10;;;7.70;99.90;;;;;;5033141;28;20504;-66
2022/03/06 10:13:37;;;;;;;2.90;2.70;;;7.40;99.90;;;;;;5041308;28;20777;-76
2022/03/06 10:16:15;;;;;;;3.50;2.97;;;7.10;99.90;;;;;;5050984;28;20752;-69
2022/03/06 10:18:44;;;;;;;4.73;3.90;;;6.90;99.90;;;;;;5033042;28;20798;-68
2022/03/06 10:21:20;;;;;;;3.57;3.27;;;7.10;99.90;;;;;;5041433;28;20796;-71
2022/03/06 10:23:48;;;;;;;4.80;3.20;;;7.20;99.90;;;;;;5038037;28;20531;-70
2022/03/06 10:26:19;;;;;;;3.20;3.00;;;6.80;99.90;;;;;;5033616;28;21006;-66
2022/03/06 10:28:51;;;;;;;3.17;2.97;;;6.30;99.90;;;;;;5052436;28;20463;-74
2022/03/06 10:31:19;;;;;;;6.17;3.50;;;6.10;99.90;;;;;;5052624;28;20436;-74
2022/03/06 10:33:57;;;;;;;5.60;3.37;;;6.20;99.90;;;;;;5053180;28;20409;-74
2022/03/06 10:36:52;;;;;;;3.27;3.07;;;6.40;99.90;;;;;;5049160;28;20425;-67
2022/03/06 10:39:20;;;;;;;3.67;3.30;;;6.80;99.90;;;;;;5037644;28;20479;-68
2022/03/06 10:41:51;;;;;;;5.40;3.40;;;7.60;99.90;;;;;;5038420;28;20454;-68
2022/03/06 10:44:19;;;;;;;3.07;2.87;;;8.50;99.90;;;;;;5037425;28;20458;-75
2022/03/06 10:47:02;;;;;;;3.83;3.53;;;9.60;99.90;;;;;;5053260;28;20402;-75
2022/03/06 10:49:29;;;;;;;4.20;3.80;;;9.60;99.90;;;;;;5051457;28;20413;-67
2022/03/06 10:51:54;;;;;;;3.90;3.50;;;9.80;99.90;;;;;;5050830;28;20441;-71
2022/03/06 10:54:20;;;;;;;7.17;4.17;;;10.00;99.90;;;;;;5034412;28;20899;-76
2022/03/06 10:56:50;;;;;;;3.83;3.57;;;9.90;99.90;;;;;;5052685;28;20173;-76
2022/03/06 10:59:21;;;;;;;3.90;3.43;;;9.80;99.90;;;;;;5032263;28;20411;-66
2022/03/06 11:01:50;;;;;;;3.60;3.40;;;8.90;99.90;;;;;;5032985;28;20450;-66
2022/03/06 11:04:18;;;;;;;3.77;3.47;;;8.10;99.90;;;;;;5052492;28;20467;-76
2022/03/06 11:06:46;;;;;;;5.40;4.17;;;8.20;99.90;;;;;;5051104;28;20459;-67
2022/03/06 11:09:16;;;;;;;4.50;4.10;;;8.10;99.90;;;;;;5043938;28;20759;-69
2022/03/06 11:11:46;;;;;;;10.43;5.93;;;7.40;99.90;;;;;;5032907;28;20517;-67
2022/03/06 11:14:13;;;;;;;4.57;4.27;;;7.20;99.90;;;;;;5031755;28;20492;-67
2022/03/06 11:16:40;;;;;;;4.07;3.77;;;7.20;99.90;;;;;;5032735;28;20453;-75
2022/03/06 11:19:06;;;;;;;4.63;3.83;;;7.10;99.90;;;;;;5051454;28;20496;-70
2022/03/06 11:21:37;;;;;;;4.50;4.00;;;6.80;99.90;;;;;;5050136;28;20940;-66
2022/03/06 11:24:11;;;;;;;4.13;3.60;;;6.80;99.90;;;;;;5044554;28;20486;-66
2022/03/06 11:26:48;;;;;;;3.90;3.60;;;6.60;99.90;;;;;;5051844;28;20422;-67
2022/03/06 11:29:33;;;;;;;4.63;4.27;;;6.50;99.90;;;;;;5051125;28;20406;-70
2022/03/06 11:32:04;;;;;;;3.87;3.53;;;6.40;99.90;;;;;;5047410;28;20437;-71
2022/03/06 11:34:32;;;;;;;4.83;3.30;;;6.70;99.90;;;;;;5032650;28;20402;-74
2022/03/06 11:37:02;;;;;;;4.83;3.30;;;6.80;99.90;;;;;;5033438;28;20950;-66
2022/03/06 11:39:31;;;;;;;4.23;3.80;;;6.80;99.90;;;;;;5031906;28;20497;-75
2022/03/06 11:42:02;;;;;;;3.53;3.33;;;6.90;99.90;;;;;;5032765;28;20422;-75
2022/03/06 11:44:33;;;;;;;4.23;3.93;;;7.10;99.90;;;;;;5032593;28;20453;-67
2022/03/06 11:47:00;;;;;;;4.60;4.20;;;7.40;99.90;;;;;;5035909;28;20425;-75
2022/03/06 11:49:34;;;;;;;4.77;4.17;;;7.80;99.90;;;;;;5036386;28;20418;-75
2022/03/06 11:52:00;;;;;;;3.57;3.27;;;8.10;99.90;;;;;;5033478;28;20548;-75
2022/03/06 11:54:41;;;;;;;5.63;3.60;;;8.30;99.90;;;;;;5031343;28;20894;-75
2022/03/06 11:57:07;;;;;;;6.50;4.00;;;8.40;99.90;;;;;;5035597;28;20187;-67
2022/03/06 11:59:35;;;;;;;4.00;3.80;;;8.10;99.90;;;;;;5051630;28;20404;-75
2022/03/06 12:02:15;;;;;;;8.33;5.70;;;8.00;99.90;;;;;;5050183;28;20225;-66
2022/03/06 12:04:45;;;;;;;4.13;3.83;;;8.00;99.90;;;;;;5032440;28;20415;-76
2022/03/06 12:07:12;;;;;;;4.63;4.17;;;8.00;99.90;;;;;;5046371;28;20521;-75
2022/03/06 12:09:41;;;;;;;4.50;3.67;;;8.20;99.90;;;;;;5050900;28;20480;-72
2022/03/06 12:12:14;;;;;;;6.60;4.43;;;8.20;99.90;;;;;;5050585;28;20856;-66
2022/03/06 12:14:41;;;;;;;4.40;4.10;;;8.00;99.90;;;;;;5052257;28;20405;-67
2022/03/06 12:17:10;;;;;;;5.90;3.93;;;8.00;99.90;;;;;;5047012;28;20411;-66
2022/03/06 12:19:45;;;;;;;4.60;4.20;;;8.00;99.90;;;;;;5032223;28;20416;-75
2022/03/06 12:22:11;;;;;;;4.10;3.47;;;8.00;99.90;;;;;;5051402;28;20429;-75
2022/03/06 12:24:38;;;;;;;4.13;3.80;;;8.00;99.90;;;;;;5052263;28;20631;-67
2022/03/06 12:27:10;;;;;;;3.80;3.53;;;7.80;99.90;;;;;;5048036;28;20416;-73
2022/03/06 12:29:52;;;;;;;3.40;3.20;;;7.80;99.90;;;;;;5031486;28;20807;-75
2022/03/06 12:32:26;;;;;;;3.87;3.57;;;8.10;99.90;;;;;;5038910;28;20431;-66
2022/03/06 12:35:03;;;;;;;10.13;5.20;;;7.80;99.90;;;;;;5035992;28;20418;-66
2022/03/06 12:37:32;;;;;;;5.20;4.00;;;7.60;99.90;;;;;;5035962;28;20506;-76
2022/03/06 12:39:59;;;;;;;4.77;4.07;;;7.60;99.90;;;;;;5042975;28;20422;-74
2022/03/06 12:42:32;;;;;;;4.53;4.23;;;8.30;99.90;;;;;;5055250;28;20940;-74
2022/03/06 12:45:01;;;;;;;5.97;3.37;;;9.50;99.90;;;;;;5054113;28;20417;-70
2022/03/06 12:47:27;;;;;;;4.20;3.80;;;10.00;99.90;;;;;;5044039;28;20421;-66
2022/03/06 12:49:53;;;;;;;5.20;3.53;;;9.50;99.90;;;;;;5034726;28;20424;-67
2022/03/06 12:52:22;;;;;;;10.03;5.40;;;9.00;99.90;;;;;;5034305;28;20461;-76
2022/03/06 12:54:51;;;;;;;8.23;3.10;;;8.30;99.90;;;;;;5040588;28;20449;-66
2022/03/06 12:57:18;;;;;;;3.93;3.63;;;7.60;99.90;;;;;;5055181;28;20432;-66